Startpagina
METAR-TAF:

METAR-TAF

Vliegvelden :

Nagpur, India

breedte: 21-06N, lengte: 079-03E, hoogte: 308 m

Actueel weer

Dit bericht is 33 minuten geleden gemaakt, om 10:30 UTC
Wind 4 kt uit het oostnoordoosten
Temperatuur 26°C
Vochtigheid 45%
Druk 1017 hPa
Zicht: 3000 m
nevel

METAR: VANP 151030Z 06004KT 3000 BR NSC 26/13 Q1017 NOSIG

Tijdstip: 16:33 (11:03 UTC)

Verwachting

Dit bericht is 6 uur en het 3 minuten geleden gemaakt, om 05:00 UTC
Verwachting geldig van 15 om 06 UTC tot 16 om 12 UTC
Wind 5 kt uit het noordoosten
Zicht: 3000 m
Verspreide wolken op 10000 ft
Heiigheid
Wijzigt naar
van 15 om 12 UTC tot 15 om 14 UTC
Zicht: 2000 m
Weinig wolken op 10000 ft
Wijzigt naar
van 16 om 00 UTC tot 16 om 04 UTC
Wind 5 kt uit het noordnoordoosten
Zicht: 2500 m
Weinig wolken op 2000 ft
Verspreide wolken op 10000 ft
Heiigheid

TAF: VANP 150500Z 1506/1612 05005KT 3000 HZ SCT100 BECMG 1512/1514 2000 BRHZ FEW100 BECMG 1600/1604 03005KT 2500 HZ FEW020 SCT100

Waarnemingen en weersverwachtingen van meer dan 4000 vliegvelden (METAR en TAF).

De beschikbare stations zijn de gele en rode punten op de kaart.

Ga met uw muis naar het station om de naam te zien.

Klik dan om waarnemingen en weersverwachtingen te zien.

kaart wijzigen: klik op de groene knoppen met een zwart kruis om in te zoomen, op de groene knop met een streepje om uit te zoomen of op de groene pijlen voor aangrenzende kaarten.


METAR-TAF: